Meise, Belgium
Current Conditions -  °F | °C
As of 3:20 AM on Wednesday 22 Oct 2014 (Local Time) from EBBR Reporting Station
Few Clouds Few Clouds  
Wind Chill: 40°   Ceiling: Unl
Heat Index: 46°   Visibility: 6mi
Dew Point: 37°   Wind: 16mph
Humidity: 71%   Direction: 280°W
Pressure: 30"   Gusts: NA
Location:  50.94°N, 4.33°E
Report Text: EBBR 220120Z 28014KT 9999 FEW030 08/03 Q1016 NOSIG
Loading
Personal Weather Stations






























Interactive Weather Map
Tropical Storm Tracking
New forecast layout! Learn more

10-Day Weather Forecast

Advertisements
Track Severe Weather on mobile